logo dgac
Martes 21 de Septiembre del 2021
Buscar por aerodromo o helipuerto
Ingrese nombre de aeródromo, localidad o designador OACI:

Aeródromo: Diego Aracena (PUB) (SCDA)

Ubicación: Iquique, I Región, Chile (20º 32' 07'' S, 70º 10' 53'' W) Ver ubicación en el mapa

Pistas

Orientación Dimensión Pendiente Superficie Resistencia APCH THR RWY PAPI
01/19 3.350 x 45 0,50 ASPH PCN 53 F/A/W/T
Horas de operación H24
Elevación 48 m / 156 ft
Otra Información Adm : D.G.A.C.
Uso : PUB
Ubicado a 45 km S Ciudad Iquique
TEL (56) 57 2461200
email : aro.iquique@dgac.gob.cl


Otra información ver AIP-Chile Volumen I AD 2.5.1 SCDA

CCCM/FCCV Descargar
andera de Chile
Mapa de Diego Aracena (PUB) (SCDA)

Último METAR

METAR SCDA 211100Z 17005KT 9999 OVC027 15/09 Q1017

Último TAF

TAF SCDA 211021Z 2112/2212 20004KT 9999 OVC027 TX17/2118Z TN14/2210Z BECMG 2115/2117 24012KT SCT030 BECMG 2202/2204 20004KT BKN030

Últimas fotos cámaras

Imagen aerodromo Diego Aracena (PUB) (SCDA) Norte tomada el 20-09-2021 02:02:47 Imagen aerodromo Diego Aracena (PUB) (SCDA) Sur tomada el 21-09-2021 11:58:28

Último NOTAM

A4443/21 NOTAMN Q)SCFZ/QLAAS/IV/NBO/A/000/999/2032S07011W005 A)SCDA B)2109211300 C)2109212100 E)ALSF-1 RWY 19 NOT AVBL DUE TO PROGRAMMED PREVENTIVE MAINT